Time;durP1;ratioP1;P1;durP2;ratioP2;P2;SDS_P1;SDS_P2;PMS_P1;PMS_P2;Temp;Humidity;BMP_temperature;BMP_pressure;BME280_temperature;BME280_humidity;BME280_pressure;Samples;Min_cycle;Max_cycle;Signal;HPM_P1;HPM_P2
2020/12/23 00:00:14;;;;;;;8.05;6.03;;;5.90;73.00;;;;;;5272674;23;20033;-86
2020/12/23 00:05:15;;;;;;;8.38;6.00;;;5.90;73.00;;;;;;5037415;28;20064;-93
2020/12/23 00:07:44;;;;;;;8.23;5.97;;;5.90;72.90;;;;;;5015943;23;20062;-93
2020/12/23 00:10:12;;;;;;;8.05;5.72;;;5.90;72.90;;;;;;5097643;23;20066;-91
2020/12/23 00:12:41;;;;;;;6.35;5.38;;;5.90;72.90;;;;;;4986079;28;20035;-92
2020/12/23 00:15:08;;;;;;;7.32;5.60;;;5.90;72.80;;;;;;5002547;28;20038;-89
2020/12/23 00:17:36;;;;;;;7.65;5.40;;;5.90;72.80;;;;;;5017790;28;20030;-92
2020/12/23 00:20:04;;;;;;;6.50;5.03;;;5.90;72.80;;;;;;4983972;28;20038;-92
2020/12/23 00:22:32;;;;;;;7.38;4.93;;;5.90;72.80;;;;;;5018160;28;20070;-88
2020/12/23 00:25:02;;;;;;;7.40;5.18;;;5.90;72.80;;;;;;4983613;28;20018;-92
2020/12/23 00:27:28;;;;;;;7.43;4.93;;;5.90;72.70;;;;;;5000316;28;20106;-91
2020/12/23 00:29:56;;;;;;;7.82;4.65;;;5.90;72.70;;;;;;5001306;28;20030;-91
2020/12/23 00:32:27;;;;;;;6.25;4.80;;;5.90;72.70;;;;;;5017996;28;20030;-93
2020/12/23 00:34:53;;;;;;;6.15;4.78;;;5.90;72.80;;;;;;5074057;23;20062;-92
2020/12/23 00:37:19;;;;;;;7.05;4.88;;;6.00;72.80;;;;;;5016952;28;20026;-91
2020/12/23 00:39:47;;;;;;;6.60;5.00;;;6.00;72.70;;;;;;4983891;28;20022;-91
2020/12/23 00:42:13;;;;;;;5.55;4.57;;;5.90;72.70;;;;;;5016893;28;20042;-93
2020/12/23 00:44:40;;;;;;;6.55;4.40;;;5.90;72.80;;;;;;5015755;28;20046;-91
2020/12/23 00:47:06;;;;;;;6.00;4.55;;;5.90;72.70;;;;;;4997499;28;20064;-91
2020/12/23 00:49:32;;;;;;;6.22;4.55;;;5.90;72.70;;;;;;5014738;28;20042;-92
2020/12/23 00:51:58;;;;;;;7.03;4.55;;;5.90;72.80;;;;;;4993129;28;20552;-91
2020/12/23 00:54:24;;;;;;;6.30;4.20;;;5.90;72.70;;;;;;4998347;28;20034;-93
2020/12/23 00:56:53;;;;;;;6.18;4.40;;;5.90;72.70;;;;;;4999840;28;20034;-88
2020/12/23 00:59:25;;;;;;;5.78;4.15;;;5.90;72.90;;;;;;5015572;28;20045;-88
2020/12/23 01:02:00;;;;;;;5.13;4.10;;;5.90;72.80;;;;;;5007177;28;20030;-89
2020/12/23 01:04:28;;;;;;;6.85;4.68;;;5.90;72.80;;;;;;5015841;28;20030;-91
2020/12/23 01:06:54;;;;;;;6.03;4.82;;;6.00;72.80;;;;;;4998791;28;20043;-90
2020/12/23 01:09:20;;;;;;;7.72;4.60;;;5.90;72.80;;;;;;5017760;28;20054;-93
2020/12/23 01:11:50;;;;;;;7.00;4.63;;;6.00;72.90;;;;;;5002866;28;20015;-92
2020/12/23 01:14:17;;;;;;;6.28;4.40;;;5.90;72.80;;;;;;5004029;28;20018;-91
2020/12/23 01:16:45;;;;;;;6.90;4.57;;;5.90;72.90;;;;;;5003164;28;20042;-92
2020/12/23 01:19:11;;;;;;;5.72;4.65;;;5.90;72.90;;;;;;5020426;28;20078;-92
2020/12/23 01:21:38;;;;;;;7.75;4.65;;;5.90;73.00;;;;;;5004940;28;20015;-91
2020/12/23 01:24:04;;;;;;;5.65;4.40;;;6.00;73.00;;;;;;5021038;28;20026;-86
2020/12/23 01:26:30;;;;;;;6.40;4.60;;;5.90;73.00;;;;;;4987126;28;20092;-92
2020/12/23 01:28:56;;;;;;;6.85;5.10;;;6.00;73.10;;;;;;5002779;28;20129;-91
2020/12/23 01:31:22;;;;;;;6.63;4.63;;;5.90;73.10;;;;;;5001070;28;20087;-92
2020/12/23 01:33:48;;;;;;;6.15;4.55;;;5.90;73.10;;;;;;5091894;23;20040;-91
2020/12/23 01:36:14;;;;;;;6.68;4.78;;;5.90;73.10;;;;;;5020393;28;20090;-92
2020/12/23 01:38:40;;;;;;;6.75;4.65;;;5.90;73.10;;;;;;5019002;28;20042;-93
2020/12/23 01:41:06;;;;;;;7.45;5.15;;;5.90;73.20;;;;;;4995246;23;20054;-92
2020/12/23 01:43:38;;;;;;;9.65;5.28;;;5.90;73.20;;;;;;4966179;28;20066;-92
2020/12/23 01:46:04;;;;;;;7.65;5.55;;;5.90;73.80;;;;;;4985530;28;20057;-91
2020/12/23 01:48:33;;;;;;;7.85;4.97;;;5.90;73.20;;;;;;5152927;23;21332;-87
2020/12/23 01:51:05;;;;;;;9.18;6.28;;;5.90;73.10;;;;;;5004480;28;20058;-92
2020/12/23 01:53:31;;;;;;;8.93;5.85;;;6.00;73.20;;;;;;4987994;28;20113;-90
2020/12/23 01:55:59;;;;;;;9.00;6.32;;;5.90;73.10;;;;;;5033294;23;20073;-91
2020/12/23 01:58:33;;;;;;;10.85;6.38;;;6.00;73.20;;;;;;5021580;28;20042;-90
2020/12/23 02:01:00;;;;;;;8.30;6.00;;;5.90;73.20;;;;;;5004071;28;20045;-93
2020/12/23 02:03:26;;;;;;;9.10;6.43;;;6.00;73.20;;;;;;5019189;28;20058;-94
2020/12/23 02:05:56;;;;;;;9.90;6.13;;;6.00;73.20;;;;;;5020485;28;20022;-90
2020/12/23 02:08:23;;;;;;;9.75;6.90;;;6.00;73.20;;;;;;5021148;28;20023;-94
2020/12/23 02:10:50;;;;;;;9.77;6.28;;;6.00;73.20;;;;;;5059056;23;20054;-94
2020/12/23 02:13:37;;;;;;;9.55;6.70;;;5.90;73.20;;;;;;5022140;28;20042;-93
2020/12/23 02:16:03;;;;;;;11.43;7.00;;;5.90;73.20;;;;;;5004628;28;20065;-92
2020/12/23 02:18:29;;;;;;;10.85;6.72;;;6.00;73.20;;;;;;5018610;28;20046;-92
2020/12/23 02:20:56;;;;;;;10.40;6.88;;;5.90;73.20;;;;;;4985191;28;20061;-93
2020/12/23 02:23:22;;;;;;;11.05;7.28;;;6.00;73.80;;;;;;5002988;28;20038;-93
2020/12/23 02:25:50;;;;;;;12.20;7.45;;;6.00;73.30;;;;;;5038856;28;20061;-93
2020/12/23 02:28:16;;;;;;;11.32;7.18;;;6.00;73.90;;;;;;5021057;28;20018;-93
2020/12/23 02:30:42;;;;;;;11.55;7.53;;;6.00;73.20;;;;;;5038094;28;20057;-94
2020/12/23 02:33:08;;;;;;;12.27;7.53;;;6.00;73.20;;;;;;5021128;28;20069;-91
2020/12/23 02:35:34;;;;;;;13.07;7.63;;;6.00;73.20;;;;;;5037354;28;20030;-94
2020/12/23 02:38:02;;;;;;;12.73;7.97;;;6.00;73.20;;;;;;5037348;28;20038;-95
2020/12/23 02:40:28;;;;;;;14.60;8.40;;;6.00;73.20;;;;;;5021559;28;20049;-94
2020/12/23 02:42:55;;;;;;;12.52;7.53;;;5.90;73.20;;;;;;5070935;23;20133;-93
2020/12/23 02:45:21;;;;;;;13.15;7.30;;;6.00;73.20;;;;;;4999878;23;20066;-93
2020/12/23 02:47:58;;;;;;;14.30;8.00;;;5.90;73.20;;;;;;5217203;23;20049;-89
2020/12/23 02:50:25;;;;;;;12.70;7.93;;;5.90;73.10;;;;;;5001707;28;20328;-93
2020/12/23 02:52:54;;;;;;;14.32;8.15;;;5.90;73.10;;;;;;5002321;28;20053;-88
2020/12/23 02:55:20;;;;;;;14.13;8.07;;;5.90;73.00;;;;;;5000504;28;20046;-92
2020/12/23 02:57:46;;;;;;;13.70;8.10;;;5.90;73.10;;;;;;5002397;28;20076;-92
2020/12/23 03:00:28;;;;;;;;;;;;;;;;;;;;;
2020/12/23 03:03:23;;;;;;;13.73;8.10;;;5.90;73.00;;;;;;5085110;23;20034;31
2020/12/23 03:05:51;;;;;;;15.13;8.88;;;5.90;73.00;;;;;;5160453;23;20058;-94
2020/12/23 03:08:20;;;;;;;12.82;7.90;;;5.90;73.00;;;;;;4999090;28;20050;-93
2020/12/23 03:10:54;;;;;;;17.20;9.55;;;5.90;72.90;;;;;;5018106;28;20049;-90
2020/12/23 03:13:26;;;;;;;14.60;8.77;;;5.90;72.90;;;;;;4987056;28;20039;-92
2020/12/23 03:16:03;;;;;;;14.85;8.48;;;5.90;72.90;;;;;;5019056;28;20061;-93
2020/12/23 03:18:29;;;;;;;14.85;8.75;;;6.00;73.00;;;;;;5037549;23;20131;-93
2020/12/23 03:20:55;;;;;;;17.35;9.82;;;6.00;73.00;;;;;;4959935;29;20039;-93
2020/12/23 03:23:24;;;;;;;15.40;8.98;;;6.00;73.00;;;;;;4943868;29;20051;-92
2020/12/23 03:25:50;;;;;;;16.60;9.57;;;6.00;73.00;;;;;;4941106;29;20091;-94
2020/12/23 03:28:16;;;;;;;15.98;8.98;;;6.00;73.00;;;;;;4946976;29;20495;-88
2020/12/23 03:30:42;;;;;;;16.40;9.88;;;6.00;73.00;;;;;;4936247;29;20135;-85
2020/12/23 03:33:08;;;;;;;15.88;10.05;;;6.00;73.00;;;;;;4950611;29;20062;-88
2020/12/23 03:35:34;;;;;;;18.38;10.45;;;6.00;73.00;;;;;;4936917;29;20046;-81
2020/12/23 03:38:00;;;;;;;18.48;10.32;;;6.00;73.10;;;;;;4927297;29;20123;-82
2020/12/23 03:40:27;;;;;;;18.02;10.15;;;6.00;73.10;;;;;;4937082;29;20040;-81
2020/12/23 03:42:53;;;;;;;17.90;9.90;;;6.00;73.10;;;;;;4936350;29;20070;-81
2020/12/23 03:45:19;;;;;;;15.20;9.52;;;6.00;73.10;;;;;;4919472;29;20571;-82
2020/12/23 03:47:45;;;;;;;17.98;10.48;;;6.00;73.10;;;;;;4938497;29;20040;-89
2020/12/23 03:50:11;;;;;;;17.85;10.18;;;6.00;73.20;;;;;;4901456;29;20131;-82
2020/12/23 03:52:37;;;;;;;17.67;9.60;;;5.90;73.00;;;;;;4916221;29;20036;-87
2020/12/23 03:55:03;;;;;;;17.75;10.35;;;5.90;73.10;;;;;;4918745;29;20068;-85
2020/12/23 03:57:29;;;;;;;16.33;10.35;;;6.00;73.20;;;;;;4900630;29;20047;-85
2020/12/23 03:59:55;;;;;;;17.25;10.93;;;6.00;73.10;;;;;;4900248;29;20044;-80
2020/12/23 04:02:21;;;;;;;15.20;9.18;;;5.90;73.00;;;;;;4899915;29;20036;-86
2020/12/23 04:04:47;;;;;;;13.93;8.63;;;6.00;73.00;;;;;;4900548;29;20103;-81
2020/12/23 04:07:13;;;;;;;16.92;9.65;;;5.90;72.90;;;;;;4903773;29;20118;-85
2020/12/23 04:09:40;;;;;;;16.00;9.75;;;6.00;73.00;;;;;;4936900;29;20515;-93
2020/12/23 04:12:05;;;;;;;17.25;9.77;;;5.90;72.90;;;;;;4942092;29;20040;-89
2020/12/23 04:14:33;;;;;;;15.57;9.18;;;6.00;73.00;;;;;;4937568;29;20043;-87
2020/12/23 04:16:58;;;;;;;15.32;9.57;;;6.00;73.00;;;;;;4921335;29;20119;-91
2020/12/23 04:19:24;;;;;;;15.85;9.93;;;5.90;72.90;;;;;;4938852;29;20492;-89
2020/12/23 04:21:50;;;;;;;14.30;9.27;;;5.90;72.90;;;;;;4920597;29;20035;-88
2020/12/23 04:24:16;;;;;;;17.52;9.50;;;5.90;73.00;;;;;;4919779;29;20043;-86
2020/12/23 04:26:42;;;;;;;14.48;9.13;;;5.90;72.90;;;;;;4920593;29;20530;-86
2020/12/23 04:29:08;;;;;;;16.02;9.18;;;6.00;72.90;;;;;;4941949;29;20145;-88
2020/12/23 04:31:35;;;;;;;15.52;9.35;;;5.90;72.80;;;;;;4940079;29;20078;-87
2020/12/23 04:34:01;;;;;;;16.35;9.32;;;5.90;72.80;;;;;;4940934;29;20046;-88
2020/12/23 04:36:27;;;;;;;12.45;8.18;;;5.90;72.80;;;;;;4939689;29;20096;-86
2020/12/23 04:38:54;;;;;;;13.35;7.90;;;5.90;72.80;;;;;;4937606;29;20043;-88
2020/12/23 04:41:21;;;;;;;14.00;8.68;;;5.90;72.70;;;;;;4937282;29;20035;-86
2020/12/23 04:43:47;;;;;;;15.38;8.48;;;5.90;72.70;;;;;;4933977;29;20130;-89
2020/12/23 04:46:22;;;;;;;13.40;8.30;;;6.00;72.70;;;;;;4938027;29;20046;-91
2020/12/23 04:48:53;;;;;;;;;;;5.90;72.60;;;;;;4927718;29;20047;-89
2020/12/23 04:51:29;;;;;;;14.13;8.35;;;5.90;72.50;;;;;;4944996;29;19919;-91
2020/12/23 04:53:57;;;;;;;10.13;7.25;;;5.90;72.60;;;;;;4950365;29;20039;-92
2020/12/23 04:56:25;;;;;;;10.95;7.30;;;5.90;72.60;;;;;;4944612;29;20088;-92
2020/12/23 04:58:52;;;;;;;13.25;7.50;;;5.90;72.30;;;;;;4946874;29;20091;-91
2020/12/23 05:01:18;;;;;;;10.98;7.50;;;5.90;72.40;;;;;;4946613;29;20036;-92
2020/12/23 05:03:45;;;;;;;10.95;7.25;;;5.90;72.40;;;;;;4949880;29;20099;-89
2020/12/23 05:06:11;;;;;;;12.20;7.57;;;5.90;72.30;;;;;;4951185;29;20058;-92
2020/12/23 05:08:37;;;;;;;10.50;6.93;;;5.90;72.20;;;;;;4944313;29;20040;-90
2020/12/23 05:11:10;;;;;;;10.50;7.07;;;5.90;72.10;;;;;;4949459;29;20400;-91
2020/12/23 05:13:37;;;;;;;12.38;7.35;;;5.90;72.00;;;;;;4942941;29;20046;-88
2020/12/23 05:16:07;;;;;;;11.00;7.00;;;5.90;71.90;;;;;;4944988;29;20040;-91
2020/12/23 05:18:39;;;;;;;10.02;6.32;;;5.90;71.80;;;;;;4948629;29;20055;-91
2020/12/23 05:21:16;;;;;;;10.93;7.20;;;5.90;71.80;;;;;;4948881;29;20063;-90
2020/12/23 05:23:43;;;;;;;11.50;7.15;;;5.90;71.50;;;;;;4952259;29;20039;-90
2020/12/23 05:26:10;;;;;;;10.35;6.50;;;5.90;71.70;;;;;;4950780;29;20052;-88
2020/12/23 05:28:36;;;;;;;10.30;6.43;;;5.90;71.60;;;;;;4937306;29;20071;-87
2020/12/23 05:31:05;;;;;;;11.23;6.57;;;5.90;71.50;;;;;;4937662;29;20424;-82
2020/12/23 05:33:36;;;;;;;11.80;7.30;;;5.80;71.40;;;;;;4941990;29;20043;-90
2020/12/23 05:36:07;;;;;;;11.32;7.35;;;5.80;70.90;;;;;;4941196;29;20062;-84
2020/12/23 05:38:34;;;;;;;11.13;7.15;;;5.50;70.70;;;;;;4941022;29;20075;-87
2020/12/23 05:41:05;;;;;;;11.10;6.95;;;5.30;70.50;;;;;;4937061;29;20074;-87
2020/12/23 05:43:32;;;;;;;11.45;7.55;;;5.30;70.50;;;;;;4918943;29;20119;-90
2020/12/23 05:46:03;;;;;;;10.73;7.25;;;5.10;70.10;;;;;;4946752;29;20168;-92
2020/12/23 05:48:31;;;;;;;10.23;7.28;;;5.10;69.80;;;;;;4937986;29;20099;-88
2020/12/23 05:50:57;;;;;;;9.57;6.68;;;5.00;70.00;;;;;;4939140;29;20087;-89
2020/12/23 05:53:27;;;;;;;12.27;7.68;;;5.00;70.10;;;;;;4945207;29;20047;-89
2020/12/23 05:55:54;;;;;;;11.25;7.35;;;5.00;69.40;;;;;;4944940;29;20043;-89
2020/12/23 05:58:24;;;;;;;11.35;7.35;;;5.00;69.40;;;;;;4954318;29;20051;-92
2020/12/23 06:00:51;;;;;;;12.85;7.68;;;4.90;69.40;;;;;;4956285;29;20019;-91
2020/12/23 06:03:23;;;;;;;11.80;7.50;;;4.80;69.70;;;;;;4959517;29;20051;-93
2020/12/23 06:06:08;;;;;;;11.90;7.57;;;4.80;69.70;;;;;;4957273;29;20039;-91
2020/12/23 06:08:36;;;;;;;10.35;7.20;;;4.80;69.40;;;;;;4959357;29;20050;-89
2020/12/23 06:11:25;;;;;;;11.52;6.97;;;4.70;69.50;;;;;;4955380;29;20035;-91
2020/12/23 06:14:07;;;;;;;10.77;7.03;;;4.60;69.80;;;;;;4958114;29;20063;-92
2020/12/23 06:16:38;;;;;;;11.52;7.07;;;4.60;69.60;;;;;;4957772;29;20043;-89
2020/12/23 06:19:27;;;;;;;13.20;7.85;;;4.60;69.70;;;;;;4977518;29;20060;-91
2020/12/23 06:21:56;;;;;;;15.23;8.73;;;4.60;69.80;;;;;;4972931;29;20046;-89
2020/12/23 06:24:22;;;;;;;20.25;10.95;;;4.60;69.80;;;;;;4969305;29;20055;-92
2020/12/23 06:26:54;;;;;;;19.58;10.38;;;4.60;69.70;;;;;;4975095;29;20043;-92
2020/12/23 06:29:23;;;;;;;19.95;11.93;;;4.50;69.90;;;;;;4973215;29;20049;-92
2020/12/23 06:31:54;;;;;;;17.40;10.23;;;4.50;70.60;;;;;;4967295;29;20087;-91
2020/12/23 06:34:22;;;;;;;18.55;9.88;;;4.40;70.00;;;;;;4974114;28;20059;-91
2020/12/23 06:36:49;;;;;;;21.52;10.63;;;4.50;69.90;;;;;;4969834;29;20084;-91
2020/12/23 06:39:18;;;;;;;20.15;9.85;;;4.40;69.60;;;;;;4968368;29;20035;-89
2020/12/23 06:42:13;;;;;;;18.42;10.02;;;4.40;69.70;;;;;;5049863;23;20535;-93
2020/12/23 06:44:42;;;;;;;15.55;9.05;;;4.40;69.60;;;;;;4983872;28;20064;-92
2020/12/23 06:47:20;;;;;;;18.90;9.85;;;4.40;69.60;;;;;;5011743;23;20101;-86
2020/12/23 06:50:03;;;;;;;16.60;9.63;;;4.40;69.40;;;;;;5045286;23;20035;-86
2020/12/23 06:52:35;;;;;;;19.95;10.07;;;4.40;69.40;;;;;;5046995;23;20058;-89
2020/12/23 06:55:10;;;;;;;15.73;9.50;;;4.40;70.00;;;;;;5061754;23;20216;-89
2020/12/23 06:57:38;;;;;;;18.63;10.65;;;4.50;69.00;;;;;;4995089;28;20038;-88
2020/12/23 07:00:32;;;;;;;16.92;9.40;;;4.50;69.00;;;;;;5021224;23;20069;-93
2020/12/23 07:03:02;;;;;;;17.55;9.82;;;4.40;68.40;;;;;;5008430;28;20047;-88
2020/12/23 07:05:28;;;;;;;16.75;9.70;;;4.50;68.20;;;;;;5017017;28;20045;-94
2020/12/23 07:08:07;;;;;;;19.25;9.88;;;4.40;68.00;;;;;;4997381;28;20058;-90
2020/12/23 07:10:45;;;;;;;15.43;9.13;;;4.40;68.30;;;;;;4979020;28;20038;-90
2020/12/23 07:13:19;;;;;;;16.35;9.13;;;4.40;68.10;;;;;;4995122;28;20069;-88
2020/12/23 07:16:04;;;;;;;13.60;8.65;;;4.50;68.00;;;;;;5015188;28;20054;-92
2020/12/23 07:18:31;;;;;;;17.15;8.70;;;4.60;67.70;;;;;;5001886;28;20060;-93
2020/12/23 07:21:09;;;;;;;14.55;8.85;;;4.60;67.00;;;;;;5016240;28;20102;-92
2020/12/23 07:23:40;;;;;;;13.63;8.48;;;4.60;67.20;;;;;;5013900;28;20033;-93
2020/12/23 07:26:27;;;;;;;16.60;9.18;;;4.60;66.70;;;;;;4997001;28;20030;-92
2020/12/23 07:28:56;;;;;;;18.23;9.50;;;4.70;66.60;;;;;;4978854;28;20038;-91
2020/12/23 07:31:22;;;;;;;14.82;8.30;;;4.70;66.30;;;;;;4993775;28;20038;-90
2020/12/23 07:46:00;;;;;;;12.85;8.10;;;4.50;66.00;;;;;;5820998;23;20030;-89
2020/12/23 07:49:10;;;;;;;17.05;8.30;;;4.60;66.00;;;;;;4942622;29;20028;-86
2020/12/23 08:13:06;;;;;;;12.32;7.85;;;4.50;64.80;;;;;;5264142;23;20105;-96
2020/12/23 08:18:12;;;;;;;15.93;8.15;;;4.60;65.10;;;;;;5669993;23;20262;-89
2020/12/23 08:20:38;;;;;;;13.45;7.35;;;4.60;64.70;;;;;;5458290;23;20061;-96
2020/12/23 08:28:48;;;;;;;13.85;7.47;;;4.40;64.40;;;;;;5267323;23;20037;-95
2020/12/23 08:34:16;;;;;;;15.20;7.38;;;4.70;64.30;;;;;;5274170;23;20034;-88
2020/12/23 08:42:23;;;;;;;12.75;6.60;;;4.60;63.90;;;;;;5359473;23;20061;-88
2020/12/23 08:45:11;;;;;;;;;;;;;;;;;;;;;
2020/12/23 08:50:37;;;;;;;12.05;6.25;;;4.80;63.60;;;;;;5238070;23;20098;31
2020/12/23 08:53:10;;;;;;;13.27;6.28;;;4.90;63.20;;;;;;5051199;23;19968;-95
2020/12/23 08:55:39;;;;;;;11.57;6.18;;;4.90;62.80;;;;;;4981500;28;20023;-92
2020/12/23 08:58:14;;;;;;;11.77;6.15;;;4.80;62.60;;;;;;4981444;28;20023;-93
2020/12/23 09:00:40;;;;;;;17.58;6.78;;;4.80;62.80;;;;;;4980398;28;20051;-89
2020/12/23 09:03:20;;;;;;;9.90;5.75;;;4.80;62.80;;;;;;4993227;28;20494;-91
2020/12/23 09:05:46;;;;;;;11.52;6.20;;;4.80;62.50;;;;;;4986819;28;20054;-92
2020/12/23 09:08:12;;;;;;;11.23;5.85;;;4.80;62.40;;;;;;4994788;28;20038;-87
2020/12/23 09:10:39;;;;;;;10.00;5.78;;;4.80;63.20;;;;;;4970953;28;20070;-87
2020/12/23 09:13:41;;;;;;;8.70;5.30;;;4.70;62.10;;;;;;4996403;28;20053;-93
2020/12/23 09:16:18;;;;;;;8.85;5.20;;;4.70;61.90;;;;;;4977484;28;20027;-91
2020/12/23 09:18:50;;;;;;;11.60;5.45;;;4.80;62.10;;;;;;5216391;23;20062;-87
2020/12/23 09:21:23;;;;;;;10.80;5.82;;;4.80;61.80;;;;;;4999779;28;20046;-91
2020/12/23 09:24:07;;;;;;;10.55;5.78;;;4.70;61.40;;;;;;5069254;23;20070;-90
2020/12/23 09:26:33;;;;;;;9.52;5.13;;;4.70;61.70;;;;;;4993662;28;20042;-90
2020/12/23 09:29:01;;;;;;;11.00;5.70;;;4.60;61.90;;;;;;5015008;28;20038;-93
2020/12/23 09:31:37;;;;;;;9.73;5.72;;;4.60;61.70;;;;;;5073313;23;20064;-92
2020/12/23 09:34:15;;;;;;;;;;;;;;;;;;;;;
2020/12/23 09:36:47;;;;;;;11.55;5.63;;;4.50;61.80;;;;;;5322484;23;20076;-87
2020/12/23 09:42:07;;;;;;;11.07;5.53;;;4.50;61.70;;;;;;5034606;28;20077;-91
2020/12/23 09:44:49;;;;;;;8.93;5.68;;;4.60;62.00;;;;;;5016825;28;20614;-91
2020/12/23 09:47:49;;;;;;;10.88;5.90;;;4.50;61.80;;;;;;5153537;23;20089;-91
2020/12/23 09:50:18;;;;;;;8.52;5.22;;;4.40;61.90;;;;;;5023168;28;20048;-91
2020/12/23 09:52:45;;;;;;;14.32;5.72;;;4.60;62.10;;;;;;5007535;28;20025;-91
2020/12/23 09:55:13;;;;;;;12.73;5.63;;;4.60;61.70;;;;;;5021388;28;20041;-92
2020/12/23 09:57:56;;;;;;;;;;;;;;;;;;;;;
2020/12/23 10:03:19;;;;;;;12.13;6.57;;;4.50;62.10;;;;;;4998226;28;20031;-93
2020/12/23 10:05:53;;;;;;;12.95;5.80;;;4.50;62.40;;;;;;5035238;23;20109;-93
2020/12/23 10:08:30;;;;;;;11.50;6.20;;;4.50;62.00;;;;;;4982840;28;20045;-93
2020/12/23 10:10:58;;;;;;;12.05;6.05;;;4.60;62.20;;;;;;5154146;23;20118;-91
2020/12/23 10:13:25;;;;;;;9.68;5.30;;;4.60;62.20;;;;;;5037429;28;20045;-94
2020/12/23 10:15:58;;;;;;;10.15;5.57;;;4.70;62.20;;;;;;5037796;28;20034;-93
2020/12/23 10:18:27;;;;;;;11.50;5.47;;;4.70;62.20;;;;;;5004224;28;20034;-92
2020/12/23 10:21:03;;;;;;;11.55;7.07;;;4.60;61.70;;;;;;5047072;23;20117;-94
2020/12/23 10:23:41;;;;;;;9.70;5.75;;;4.70;62.00;;;;;;5078417;23;20061;-91
2020/12/23 10:26:44;;;;;;;7.78;4.93;;;4.60;62.20;;;;;;4988709;28;20038;-94
2020/12/23 10:29:15;;;;;;;8.73;5.10;;;4.50;62.20;;;;;;5017669;28;20049;-94
2020/12/23 10:31:49;;;;;;;10.70;5.63;;;4.40;62.60;;;;;;4987291;28;20094;-92
2020/12/23 10:34:17;;;;;;;14.27;5.18;;;4.40;62.60;;;;;;4986363;28;20046;-93
2020/12/23 10:36:49;;;;;;;8.27;5.38;;;4.30;62.80;;;;;;4999658;28;20053;-92
2020/12/23 10:39:26;;;;;;;15.68;6.07;;;4.30;63.60;;;;;;5000261;28;20046;-93
2020/12/23 10:42:01;;;;;;;12.82;5.82;;;4.20;63.70;;;;;;4997716;28;20026;-92
2020/12/23 10:44:45;;;;;;;12.15;5.68;;;4.20;63.60;;;;;;5016896;28;20050;-92
2020/12/23 10:47:14;;;;;;;11.43;5.57;;;4.30;63.70;;;;;;5000574;28;20092;-92
2020/12/23 10:49:59;;;;;;;7.45;4.85;;;4.40;63.60;;;;;;4998898;28;20037;-92
2020/12/23 10:52:27;;;;;;;7.65;4.65;;;4.20;63.80;;;;;;5002549;28;20043;-90
2020/12/23 10:55:01;;;;;;;9.00;4.43;;;4.20;63.80;;;;;;5019644;28;20045;-92
2020/12/23 10:57:37;;;;;;;9.48;4.85;;;4.30;63.70;;;;;;5120507;23;20316;-90
2020/12/23 11:02:53;;;;;;;10.25;4.82;;;4.20;63.70;;;;;;5007311;23;20068;-94
2020/12/23 11:05:19;;;;;;;11.07;5.30;;;4.20;63.70;;;;;;5017581;28;20038;-92
2020/12/23 11:07:51;;;;;;;6.25;4.38;;;4.20;63.60;;;;;;4996053;28;20111;-92
2020/12/23 11:10:32;;;;;;;8.38;4.50;;;4.30;63.60;;;;;;5268474;23;20024;-93
2020/12/23 11:13:05;;;;;;;7.25;4.50;;;4.40;63.50;;;;;;4986138;28;20027;-92
2020/12/23 11:15:42;;;;;;;6.82;4.40;;;4.40;63.20;;;;;;5000916;28;20038;-92
2020/12/23 11:18:10;;;;;;;5.43;3.88;;;4.30;63.40;;;;;;5017223;28;20040;-89
2020/12/23 11:20:39;;;;;;;9.35;4.72;;;4.30;63.40;;;;;;5016030;28;20002;-93
2020/12/23 11:23:24;;;;;;;6.43;4.43;;;4.30;63.30;;;;;;4999507;28;20118;-94
2020/12/23 11:25:56;;;;;;;8.50;4.70;;;4.30;63.60;;;;;;5012641;23;20058;-93
2020/12/23 11:28:25;;;;;;;8.10;4.70;;;4.30;63.50;;;;;;5059476;23;20054;-92
2020/12/23 11:31:01;;;;;;;;;;;;;;;;;;;;;
2020/12/23 11:33:38;;;;;;;8.38;4.68;;;4.20;63.50;;;;;;5002288;28;20099;-93
2020/12/23 11:36:10;;;;;;;7.60;4.70;;;4.30;63.70;;;;;;5530631;23;20335;-94
2020/12/23 11:38:37;;;;;;;6.57;4.50;;;4.20;63.50;;;;;;4922979;29;20047;-87
2020/12/23 12:19:47;;;;;;;;;;;;;;;;;;;;;
2020/12/23 12:39:04;;;;;;;5.35;3.58;;;4.70;65.10;;;;;;4884870;29;20041;-88
2020/12/23 12:57:50;;;;;;;;;;;;;;;;;;;;;
2020/12/23 13:01:21;;;;;;;4.78;3.25;;;4.70;65.40;;;;;;4904531;29;20047;-90
2020/12/23 13:03:54;;;;;;;;;;;;;;;;;;;;;
2020/12/23 13:11:14;;;;;;;4.45;3.40;;;4.70;65.20;;;;;;4925776;28;20879;-88
2020/12/23 13:18:17;;;;;;;5.40;3.53;;;4.70;65.40;;;;;;4998213;28;20046;-86
2020/12/23 13:21:38;;;;;;;6.93;3.55;;;4.60;65.30;;;;;;4975249;28;20443;-89
2020/12/23 13:24:03;;;;;;;4.90;3.58;;;4.60;65.30;;;;;;4980468;28;20046;-83
2020/12/23 13:26:29;;;;;;;7.65;4.30;;;4.80;77.30;;;;;;4997245;28;20450;-86
2020/12/23 13:28:55;;;;;;;6.18;3.45;;;4.90;78.40;;;;;;4998889;28;20042;-88
2020/12/23 13:31:26;;;;;;;7.78;3.63;;;5.00;78.60;;;;;;4997691;28;20050;-80
2020/12/23 13:33:52;;;;;;;7.68;3.83;;;5.00;79.00;;;;;;4980558;28;20090;-81
2020/12/23 13:36:19;;;;;;;5.68;3.55;;;5.00;78.50;;;;;;4997909;28;20062;-80
2020/12/23 13:38:45;;;;;;;9.20;3.83;;;4.90;77.00;;;;;;4997160;28;20485;-81
2020/12/23 13:41:14;;;;;;;9.20;4.20;;;4.90;75.80;;;;;;4979275;28;20065;-79
2020/12/23 13:43:44;;;;;;;8.57;4.00;;;4.80;74.20;;;;;;4996933;28;20433;-84
2020/12/23 13:46:17;;;;;;;5.28;3.50;;;4.80;73.40;;;;;;4979044;28;20038;-80
2020/12/23 13:48:43;;;;;;;8.70;4.03;;;4.70;72.20;;;;;;4978961;28;20465;-81
2020/12/23 13:51:11;;;;;;;8.43;3.92;;;4.70;71.50;;;;;;4996605;28;20058;-80
2020/12/23 13:53:37;;;;;;;6.03;3.75;;;4.60;70.90;;;;;;4996215;28;20042;-81
2020/12/23 13:56:03;;;;;;;7.47;4.28;;;4.60;70.30;;;;;;4996186;28;20038;-82
2020/12/23 13:58:29;;;;;;;7.65;4.00;;;4.60;69.90;;;;;;4996517;28;20510;-81
2020/12/23 14:00:55;;;;;;;6.20;3.78;;;4.50;69.10;;;;;;4996295;28;20529;-82
2020/12/23 14:03:21;;;;;;;5.95;3.88;;;4.50;68.90;;;;;;4995856;28;20146;-80
2020/12/23 14:05:47;;;;;;;8.93;3.97;;;4.50;68.40;;;;;;4978760;28;20038;-82
2020/12/23 14:08:13;;;;;;;8.27;4.40;;;4.50;68.30;;;;;;4978695;28;20034;-81
2020/12/23 14:10:39;;;;;;;5.20;3.90;;;4.40;67.90;;;;;;4995711;28;20517;-82
2020/12/23 14:13:05;;;;;;;5.07;4.05;;;4.40;67.70;;;;;;4996036;28;20034;-81
2020/12/23 14:15:31;;;;;;;7.35;4.20;;;4.30;67.50;;;;;;4986003;28;20062;-84
2020/12/23 14:17:57;;;;;;;6.25;4.70;;;4.30;67.10;;;;;;4958798;28;20045;-82
2020/12/23 14:20:23;;;;;;;5.70;3.97;;;4.30;67.00;;;;;;4959233;28;20066;-84
2020/12/23 14:22:49;;;;;;;7.00;4.68;;;4.30;66.80;;;;;;4959174;28;20136;-83
2020/12/23 14:25:15;;;;;;;7.40;4.25;;;4.20;66.80;;;;;;4976361;28;20047;-83
2020/12/23 14:27:43;;;;;;;7.93;4.60;;;4.20;66.50;;;;;;4959876;28;20065;-83
2020/12/23 14:30:09;;;;;;;6.43;4.75;;;4.20;66.70;;;;;;4976422;28;20046;-83
2020/12/23 14:32:35;;;;;;;6.45;4.63;;;4.20;66.50;;;;;;4959003;28;20045;-81
2020/12/23 14:35:01;;;;;;;7.20;4.55;;;4.20;66.50;;;;;;4976118;28;20034;-83
2020/12/23 14:37:27;;;;;;;9.85;5.63;;;4.10;66.30;;;;;;4976141;28;20031;-83
2020/12/23 14:39:53;;;;;;;9.02;5.55;;;4.20;66.40;;;;;;4976136;28;20066;-82
2020/12/23 14:42:19;;;;;;;8.60;5.78;;;4.10;66.30;;;;;;4975825;28;20118;-83
2020/12/23 14:44:44;;;;;;;8.15;5.35;;;4.10;66.30;;;;;;4975760;28;20039;-83
2020/12/23 14:47:10;;;;;;;7.72;5.00;;;4.20;66.20;;;;;;4958773;28;20046;-83
2020/12/23 14:49:36;;;;;;;8.45;5.82;;;4.10;66.10;;;;;;4976043;28;20034;-82
2020/12/23 14:52:04;;;;;;;8.57;5.75;;;4.10;66.10;;;;;;4975700;28;20038;-81
2020/12/23 14:54:33;;;;;;;8.25;5.53;;;4.10;66.00;;;;;;4958257;28;20512;-83
2020/12/23 14:57:00;;;;;;;11.75;6.32;;;4.10;66.00;;;;;;4975455;28;20514;-82
2020/12/23 14:59:26;;;;;;;8.50;6.25;;;4.10;66.00;;;;;;4958077;28;20121;-82
2020/12/23 15:01:52;;;;;;;9.60;5.88;;;4.10;65.80;;;;;;4975445;28;20122;-80
2020/12/23 15:04:18;;;;;;;8.20;5.60;;;4.10;65.70;;;;;;4976179;28;20047;-83
2020/12/23 15:06:51;;;;;;;9.93;5.60;;;4.10;66.90;;;;;;4976817;28;20513;-81
2020/12/23 15:09:20;;;;;;;8.05;5.32;;;4.20;71.80;;;;;;4958592;28;20038;-79
2020/12/23 15:11:48;;;;;;;9.27;6.00;;;4.20;72.60;;;;;;4974591;28;20565;-80
2020/12/23 15:14:14;;;;;;;11.80;6.28;;;4.20;72.10;;;;;;4975442;28;20035;-81
2020/12/23 15:16:40;;;;;;;7.97;5.88;;;4.20;71.30;;;;;;4976886;28;20058;-79
2020/12/23 15:19:11;;;;;;;8.85;6.32;;;4.10;70.60;;;;;;4995786;28;20081;-83
2020/12/23 15:21:38;;;;;;;10.57;6.80;;;4.10;70.20;;;;;;4977642;28;20161;-82
2020/12/23 15:24:05;;;;;;;11.18;6.78;;;4.10;69.30;;;;;;4977474;28;20042;-81
2020/12/23 15:26:31;;;;;;;9.60;7.03;;;4.10;68.80;;;;;;4994858;28;20030;-81
2020/12/23 15:28:57;;;;;;;10.93;6.75;;;4.00;68.20;;;;;;4976580;28;20509;-80
2020/12/23 15:31:23;;;;;;;9.43;6.50;;;4.00;67.80;;;;;;4994443;28;20060;-80
2020/12/23 15:33:49;;;;;;;11.10;6.88;;;4.00;68.80;;;;;;4994685;28;20129;-81
2020/12/23 15:36:17;;;;;;;9.38;6.95;;;4.00;69.30;;;;;;4995478;28;20061;-89
2020/12/23 15:38:43;;;;;;;8.98;6.63;;;4.00;69.00;;;;;;4984627;28;20046;-85
2020/12/23 15:41:12;;;;;;;11.30;7.13;;;4.00;68.50;;;;;;4991205;28;20405;-89